Time;durP1;ratioP1;P1;durP2;ratioP2;P2;SDS_P1;SDS_P2;PMS_P1;PMS_P2;Temp;Humidity;BMP_temperature;BMP_pressure;BME280_temperature;BME280_humidity;BME280_pressure;Samples;Min_cycle;Max_cycle;Signal;HPM_P1;HPM_P2
2021/01/13 00:00:25;;;;;;;2.73;2.10;;;3.00;94.20;;;;;;5111026;28;20416;-73
2021/01/13 00:02:54;;;;;;;2.42;2.00;;;3.00;94.20;;;;;;5072349;28;20434;-73
2021/01/13 00:05:23;;;;;;;3.03;2.40;;;3.10;93.90;;;;;;5090774;28;20394;-73
2021/01/13 00:07:53;;;;;;;2.38;2.10;;;3.00;94.00;;;;;;5100889;28;20752;-73
2021/01/13 00:10:25;;;;;;;2.38;2.17;;;3.00;94.10;;;;;;5110955;28;20504;-72
2021/01/13 00:12:52;;;;;;;2.30;2.10;;;3.00;93.90;;;;;;5072969;28;20400;-72
2021/01/13 00:15:18;;;;;;;2.33;2.10;;;3.10;93.80;;;;;;5111095;28;20411;-72
2021/01/13 00:17:49;;;;;;;3.50;2.20;;;3.10;93.70;;;;;;5107132;28;20856;-72
2021/01/13 00:20:18;;;;;;;2.57;2.37;;;3.00;93.80;;;;;;5093168;28;20424;-72
2021/01/13 00:22:46;;;;;;;2.58;2.20;;;3.00;94.00;;;;;;5107299;28;20747;-73
2021/01/13 00:25:14;;;;;;;3.00;2.70;;;2.90;94.00;;;;;;5110675;28;20397;-73
2021/01/13 00:27:40;;;;;;;2.70;2.50;;;3.00;93.80;;;;;;5092138;28;20469;-73
2021/01/13 00:30:07;;;;;;;3.08;2.78;;;2.90;93.80;;;;;;5097224;28;20403;-72
2021/01/13 00:32:33;;;;;;;2.90;2.70;;;3.00;94.00;;;;;;5097259;28;20404;-72
2021/01/13 00:35:00;;;;;;;3.03;2.75;;;3.10;93.50;;;;;;5112385;28;20505;-72
2021/01/13 00:37:27;;;;;;;2.85;2.65;;;3.00;93.60;;;;;;5097281;28;20473;-72
2021/01/13 00:39:53;;;;;;;3.38;3.08;;;3.00;93.50;;;;;;5095575;28;20469;-73
2021/01/13 00:42:21;;;;;;;2.75;2.55;;;3.00;93.60;;;;;;5094384;28;20475;-73
2021/01/13 00:44:47;;;;;;;3.10;2.90;;;3.00;93.40;;;;;;5073798;28;20410;-73
2021/01/13 00:47:17;;;;;;;3.60;3.30;;;2.90;93.70;;;;;;5076913;28;20527;-73
2021/01/13 00:49:46;;;;;;;3.40;3.10;;;3.00;93.80;;;;;;5083288;28;20429;-73
2021/01/13 00:52:12;;;;;;;4.90;3.63;;;3.10;93.50;;;;;;5114771;28;20432;-73
2021/01/13 00:54:39;;;;;;;4.13;3.50;;;3.00;93.30;;;;;;5110812;28;20446;-73
2021/01/13 00:57:06;;;;;;;4.15;3.80;;;3.00;93.40;;;;;;5096602;28;20410;-73
2021/01/13 00:59:37;;;;;;;4.03;3.70;;;2.90;93.70;;;;;;5093301;28;20520;-73
2021/01/13 01:02:04;;;;;;;4.10;3.70;;;2.90;93.70;;;;;;5096348;28;20397;-73
2021/01/13 01:04:32;;;;;;;4.63;4.22;;;2.90;93.30;;;;;;5092485;28;20436;-73
2021/01/13 01:07:03;;;;;;;4.45;4.05;;;2.90;93.20;;;;;;5096721;28;20457;-73
2021/01/13 01:09:32;;;;;;;5.00;4.50;;;2.90;93.30;;;;;;5114360;28;20426;-73
2021/01/13 01:11:58;;;;;;;5.22;4.78;;;3.00;92.90;;;;;;5092825;28;20412;-73
2021/01/13 01:14:24;;;;;;;5.33;4.83;;;3.10;92.60;;;;;;5096434;28;20400;-73
2021/01/13 01:16:51;;;;;;;5.70;5.20;;;3.00;92.10;;;;;;5078011;28;20442;-73
2021/01/13 01:19:17;;;;;;;5.57;5.07;;;2.90;92.20;;;;;;5093631;28;20449;-73
2021/01/13 01:21:47;;;;;;;5.68;5.13;;;2.90;91.80;;;;;;5085143;28;20773;-73
2021/01/13 01:24:14;;;;;;;6.05;5.47;;;2.90;91.50;;;;;;5114179;28;20404;-73
2021/01/13 01:26:51;;;;;;;5.60;5.10;;;2.90;90.80;;;;;;5110014;28;20466;-73
2021/01/13 01:29:17;;;;;;;6.10;5.50;;;2.80;91.00;;;;;;5113783;28;20473;-73
2021/01/13 01:31:51;;;;;;;6.30;5.70;;;2.80;91.30;;;;;;5102952;28;20885;-73
2021/01/13 01:34:18;;;;;;;6.22;5.63;;;2.80;91.20;;;;;;5075885;28;20401;-73
2021/01/13 01:36:45;;;;;;;6.43;5.82;;;2.80;91.10;;;;;;5094342;28;20411;-73
2021/01/13 01:39:11;;;;;;;6.95;6.30;;;2.80;91.20;;;;;;5095506;28;20424;-73
2021/01/13 01:41:44;;;;;;;7.00;6.28;;;2.70;91.20;;;;;;5109981;28;20466;-73
2021/01/13 01:44:10;;;;;;;7.00;6.30;;;2.60;91.40;;;;;;5096094;28;20917;-73
2021/01/13 01:46:40;;;;;;;7.57;6.70;;;2.60;91.60;;;;;;5096720;28;20408;-73
2021/01/13 01:49:10;;;;;;;7.57;6.87;;;2.60;91.60;;;;;;5110270;28;20465;-73
2021/01/13 01:52:11;;;;;;;6.63;6.03;;;2.50;91.90;;;;;;5113641;28;20430;-73
2021/01/13 01:54:49;;;;;;;6.20;5.60;;;2.50;91.60;;;;;;5072598;28;20427;-72
2021/01/13 01:57:20;;;;;;;6.00;5.40;;;2.50;91.30;;;;;;5055393;28;20483;-72
2021/01/13 02:00:03;;;;;;;6.07;5.00;;;2.60;90.80;;;;;;5091850;28;20427;-72
2021/01/13 02:02:39;;;;;;;5.05;4.55;;;2.60;90.30;;;;;;5096349;28;20396;-72
2021/01/13 02:05:11;;;;;;;6.25;4.00;;;2.60;90.00;;;;;;5110877;28;20415;-72
2021/01/13 02:07:38;;;;;;;5.05;4.20;;;2.60;89.10;;;;;;5110747;28;20796;-72
2021/01/13 02:10:08;;;;;;;5.55;4.03;;;2.60;89.60;;;;;;5109701;28;20486;-72
2021/01/13 02:12:35;;;;;;;4.80;4.25;;;2.60;88.60;;;;;;5113668;28;20469;-72
2021/01/13 02:15:05;;;;;;;4.68;4.00;;;2.60;88.60;;;;;;5095057;28;20777;-73
2021/01/13 02:17:40;;;;;;;4.75;4.00;;;2.70;89.10;;;;;;5075277;28;20398;-72
2021/01/13 02:20:14;;;;;;;5.32;3.83;;;2.70;88.50;;;;;;5101518;28;20458;-72
2021/01/13 02:23:18;;;;;;;5.03;3.72;;;2.60;88.90;;;;;;5074957;28;20418;-72
2021/01/13 02:26:06;;;;;;;6.05;3.70;;;2.70;88.70;;;;;;5090426;28;20402;-73
2021/01/13 02:28:42;;;;;;;5.87;3.80;;;2.60;88.30;;;;;;5074861;28;20414;-72
2021/01/13 02:31:30;;;;;;;6.70;3.75;;;2.60;88.30;;;;;;5105088;28;20940;-72
2021/01/13 02:34:20;;;;;;;4.50;3.38;;;2.60;88.70;;;;;;5095092;28;20397;-72
2021/01/13 02:36:59;;;;;;;5.23;3.43;;;2.60;88.90;;;;;;5108952;28;20412;-72
2021/01/13 02:39:33;;;;;;;7.30;3.80;;;2.60;89.10;;;;;;5095258;28;20981;-72
2021/01/13 02:42:03;;;;;;;5.07;3.70;;;2.50;89.00;;;;;;5091081;28;20412;-73
2021/01/13 02:44:30;;;;;;;4.55;3.30;;;2.60;88.70;;;;;;5094970;28;20397;-73
2021/01/13 02:46:57;;;;;;;4.75;3.47;;;2.60;88.80;;;;;;5093863;28;20434;-72
2021/01/13 02:49:38;;;;;;;6.53;4.00;;;2.60;87.80;;;;;;5092152;28;20485;-72
2021/01/13 02:52:17;;;;;;;7.93;3.67;;;2.60;88.70;;;;;;5071508;28;20402;-73
2021/01/13 02:54:44;;;;;;;5.75;3.85;;;2.60;88.10;;;;;;5091868;28;20727;-73
2021/01/13 02:57:37;;;;;;;5.47;3.50;;;2.60;88.40;;;;;;5100714;28;20400;-73
2021/01/13 03:00:07;;;;;;;7.57;4.03;;;2.70;88.00;;;;;;5111937;28;20428;-73
2021/01/13 03:02:38;;;;;;;7.22;4.00;;;2.70;87.40;;;;;;5090814;28;20397;-73
2021/01/13 03:05:12;;;;;;;6.68;4.38;;;2.60;88.00;;;;;;5111642;28;20806;-73
2021/01/13 03:07:39;;;;;;;5.82;4.30;;;2.70;88.20;;;;;;5108389;28;20465;-73
2021/01/13 03:10:19;;;;;;;5.50;4.28;;;2.60;88.30;;;;;;5111994;28;20488;-73
2021/01/13 03:12:50;;;;;;;7.57;4.50;;;2.60;88.70;;;;;;5107924;28;20423;-73
2021/01/13 03:15:22;;;;;;;5.82;4.18;;;2.50;89.20;;;;;;5111530;28;20397;-73
2021/01/13 03:18:05;;;;;;;6.30;4.40;;;2.60;88.50;;;;;;5082633;28;20441;-72
2021/01/13 03:20:39;;;;;;;6.63;4.53;;;2.60;87.90;;;;;;5093973;28;20455;-73
2021/01/13 03:23:24;;;;;;;5.05;4.18;;;2.60;88.10;;;;;;5108000;28;20408;-73
2021/01/13 03:25:51;;;;;;;6.35;4.88;;;2.60;88.30;;;;;;5111339;28;21035;-73
2021/01/13 03:28:24;;;;;;;8.40;4.90;;;2.60;88.70;;;;;;5090296;28;20481;-72
2021/01/13 03:30:55;;;;;;;7.10;4.70;;;2.60;88.90;;;;;;5093912;28;20469;-73
2021/01/13 03:33:25;;;;;;;8.10;4.97;;;2.60;88.80;;;;;;5089849;28;20499;-73
2021/01/13 03:35:57;;;;;;;7.67;5.30;;;2.60;88.40;;;;;;5094237;28;20511;-73
2021/01/13 03:38:27;;;;;;;7.97;5.15;;;2.60;88.20;;;;;;5107177;28;20491;-73
2021/01/13 03:41:02;;;;;;;7.07;4.97;;;2.60;88.70;;;;;;5093556;28;20424;-72
2021/01/13 03:43:39;;;;;;;7.93;5.00;;;2.60;88.40;;;;;;5089439;28;20408;-73
2021/01/13 03:46:07;;;;;;;8.43;5.23;;;2.60;88.80;;;;;;5073284;28;20406;-73
2021/01/13 03:48:50;;;;;;;7.93;5.22;;;2.50;88.70;;;;;;5090927;28;20422;-73
2021/01/13 03:51:25;;;;;;;6.50;5.20;;;2.50;89.40;;;;;;5053171;28;20461;-73
2021/01/13 03:53:57;;;;;;;7.65;5.20;;;2.60;88.50;;;;;;5053007;28;20513;-73
2021/01/13 03:56:27;;;;;;;9.15;5.28;;;2.60;88.10;;;;;;5092048;28;20461;-72
2021/01/13 03:59:01;;;;;;;7.17;5.30;;;2.50;88.30;;;;;;5093217;28;20473;-73
2021/01/13 04:01:52;;;;;;;9.50;5.27;;;2.50;88.50;;;;;;5071256;28;20483;-73
2021/01/13 04:04:56;;;;;;;8.27;5.20;;;2.50;88.80;;;;;;5073062;28;20410;-73
2021/01/13 04:07:24;;;;;;;7.15;5.40;;;2.40;88.90;;;;;;5070228;28;20477;-73
2021/01/13 04:09:55;;;;;;;6.95;5.40;;;2.40;89.00;;;;;;5068939;28;20407;-73
2021/01/13 04:12:32;;;;;;;7.17;5.33;;;2.50;88.60;;;;;;5070281;28;20411;-73
2021/01/13 04:14:59;;;;;;;8.05;5.30;;;2.60;88.10;;;;;;5052873;28;20416;-73
2021/01/13 04:17:28;;;;;;;8.43;5.60;;;2.50;87.80;;;;;;5105861;28;20493;-73
2021/01/13 04:19:55;;;;;;;8.02;5.50;;;2.40;88.50;;;;;;5111441;28;20432;-72
2021/01/13 04:22:28;;;;;;;9.65;6.22;;;2.40;87.90;;;;;;5091058;28;20406;-72
2021/01/13 04:24:57;;;;;;;7.95;5.85;;;2.40;87.70;;;;;;5090642;28;20401;-72
2021/01/13 04:27:23;;;;;;;8.43;5.85;;;2.40;88.40;;;;;;5083298;28;20404;-72
2021/01/13 04:29:50;;;;;;;10.10;6.60;;;2.40;87.90;;;;;;5093494;28;20446;-72
2021/01/13 04:32:16;;;;;;;8.88;6.20;;;2.40;88.20;;;;;;5079383;28;20414;-73
2021/01/13 04:34:46;;;;;;;8.27;6.20;;;2.40;88.50;;;;;;5090396;28;20436;-72
2021/01/13 04:37:13;;;;;;;8.77;6.15;;;2.40;89.00;;;;;;5076740;28;20404;-73
2021/01/13 04:39:40;;;;;;;9.80;6.80;;;2.40;89.10;;;;;;5092734;28;20888;-73
2021/01/13 04:42:12;;;;;;;8.80;6.90;;;2.30;88.90;;;;;;5086632;28;20406;-73
2021/01/13 04:45:07;;;;;;;10.23;6.70;;;2.30;89.20;;;;;;5090487;28;20463;-72
2021/01/13 04:47:46;;;;;;;10.57;6.57;;;2.30;88.90;;;;;;5070005;28;20444;-72
2021/01/13 04:50:21;;;;;;;9.43;7.03;;;2.30;88.70;;;;;;5090934;28;20452;-73
2021/01/13 04:52:49;;;;;;;9.82;7.30;;;2.20;89.10;;;;;;5074069;28;20501;-72
2021/01/13 04:55:24;;;;;;;9.15;7.43;;;2.20;89.20;;;;;;5092899;28;20424;-72
2021/01/13 04:58:09;;;;;;;11.63;7.33;;;2.20;89.40;;;;;;5105119;28;21444;-72
2021/01/13 05:00:57;;;;;;;10.77;7.53;;;2.30;89.20;;;;;;5072418;28;20442;-73
2021/01/13 05:03:39;;;;;;;10.35;7.32;;;2.40;88.50;;;;;;5073048;28;20412;-73
2021/01/13 05:06:35;;;;;;;9.32;7.00;;;2.30;87.70;;;;;;5092373;28;20461;-73
2021/01/13 05:09:06;;;;;;;10.45;7.53;;;2.30;87.30;;;;;;5106095;28;20710;-73
2021/01/13 05:11:44;;;;;;;9.73;6.90;;;2.20;88.10;;;;;;5092806;28;20396;-73
2021/01/13 05:14:12;;;;;;;12.05;7.60;;;2.20;87.20;;;;;;5091419;28;20779;-73
2021/01/13 05:16:51;;;;;;;7.85;6.63;;;2.10;87.60;;;;;;5096337;28;20396;-73
2021/01/13 05:19:49;;;;;;;10.85;6.80;;;2.20;87.20;;;;;;5088113;28;20465;-73
2021/01/13 05:22:21;;;;;;;9.57;6.37;;;2.20;87.30;;;;;;5075475;28;20510;-73
2021/01/13 05:24:52;;;;;;;10.38;6.40;;;2.10;86.90;;;;;;5078831;28;20459;-73
2021/01/13 05:27:43;;;;;;;8.25;6.05;;;2.10;86.00;;;;;;5096422;28;20397;-73
2021/01/13 05:30:10;;;;;;;9.90;6.23;;;2.10;86.40;;;;;;5092398;28;20416;-73
2021/01/13 05:32:41;;;;;;;10.00;6.30;;;2.10;86.10;;;;;;5114421;28;20461;-72
2021/01/13 05:35:11;;;;;;;11.10;6.05;;;2.10;85.90;;;;;;5092608;28;20424;-73
2021/01/13 05:37:48;;;;;;;9.90;6.68;;;2.10;85.80;;;;;;5113786;28;20600;-72
2021/01/13 05:40:18;;;;;;;9.52;6.18;;;2.00;86.10;;;;;;5110141;28;20892;-73
2021/01/13 05:42:48;;;;;;;11.87;6.60;;;2.00;86.30;;;;;;5096435;28;20412;-73
2021/01/13 05:45:15;;;;;;;10.32;6.35;;;1.90;86.30;;;;;;5093906;28;21064;-73
2021/01/13 05:47:55;;;;;;;11.13;6.63;;;1.90;86.00;;;;;;5074882;28;20467;-73
2021/01/13 05:50:23;;;;;;;7.60;5.77;;;1.90;86.30;;;;;;5075386;28;20405;-73
2021/01/13 05:52:51;;;;;;;11.82;6.68;;;1.90;85.40;;;;;;5091209;28;20490;-73
2021/01/13 05:55:25;;;;;;;8.90;6.30;;;2.00;85.80;;;;;;5095690;28;20443;-73
2021/01/13 05:57:59;;;;;;;10.82;6.03;;;1.90;85.90;;;;;;5093514;28;20769;-72
2021/01/13 06:00:29;;;;;;;9.38;5.93;;;1.90;85.30;;;;;;5092483;28;20488;-72
2021/01/13 06:03:01;;;;;;;9.27;5.65;;;1.80;85.00;;;;;;5090659;28;20463;-72
2021/01/13 06:05:31;;;;;;;10.18;5.88;;;1.70;84.80;;;;;;5093469;28;20466;-72
2021/01/13 06:08:02;;;;;;;11.20;5.55;;;1.80;84.90;;;;;;5102209;28;20461;-72
2021/01/13 06:10:32;;;;;;;8.95;4.97;;;1.80;84.00;;;;;;5084094;28;20876;-72
2021/01/13 06:13:01;;;;;;;8.30;5.03;;;1.70;83.20;;;;;;5099700;28;20489;-72
2021/01/13 06:15:28;;;;;;;8.35;4.70;;;1.70;82.80;;;;;;5113293;28;20412;-72
2021/01/13 06:17:57;;;;;;;7.00;4.88;;;1.70;82.60;;;;;;5091637;28;20408;-72
2021/01/13 06:20:31;;;;;;;9.30;4.88;;;1.80;81.80;;;;;;5094926;28;20911;-72
2021/01/13 06:22:58;;;;;;;8.75;5.43;;;1.70;81.50;;;;;;5104571;28;20731;-72
2021/01/13 06:25:28;;;;;;;7.07;4.43;;;1.70;82.30;;;;;;5092534;28;20428;-72
2021/01/13 06:27:57;;;;;;;9.77;5.25;;;1.70;81.50;;;;;;5073575;28;20459;-72
2021/01/13 06:30:29;;;;;;;9.97;5.40;;;1.70;81.40;;;;;;5112648;28;20412;-72
2021/01/13 06:33:03;;;;;;;10.15;5.35;;;1.70;81.90;;;;;;5111047;28;20420;-72
2021/01/13 06:35:41;;;;;;;11.17;5.30;;;1.60;82.30;;;;;;5071578;28;20447;-72
2021/01/13 06:38:49;;;;;;;10.50;4.97;;;1.60;82.10;;;;;;5054463;28;20400;-72
2021/01/13 06:41:15;;;;;;;8.77;4.72;;;1.70;82.50;;;;;;5054257;28;20485;-72
2021/01/13 06:44:06;;;;;;;10.25;5.25;;;1.60;82.10;;;;;;5054649;28;20427;-72
2021/01/13 06:46:33;;;;;;;8.47;5.20;;;1.70;82.40;;;;;;5112263;28;20887;-73
2021/01/13 06:49:16;;;;;;;9.18;4.88;;;1.80;82.40;;;;;;5108455;28;20484;-72
2021/01/13 06:51:47;;;;;;;9.38;4.93;;;1.80;82.00;;;;;;5094874;28;20416;-72
2021/01/13 06:54:15;;;;;;;9.70;5.18;;;1.70;82.20;;;;;;5108718;28;20485;-72
2021/01/13 06:57:01;;;;;;;10.70;5.33;;;1.70;82.60;;;;;;5095353;28;20440;-72
2021/01/13 06:59:36;;;;;;;10.60;5.45;;;1.80;82.40;;;;;;5091529;28;20811;-72
2021/01/13 07:02:06;;;;;;;8.23;5.37;;;1.70;83.10;;;;;;5094625;28;20434;-72
2021/01/13 07:04:45;;;;;;;8.87;5.67;;;1.60;83.60;;;;;;5112278;28;20775;-72
2021/01/13 07:07:15;;;;;;;11.35;5.57;;;1.60;83.80;;;;;;5093267;28;20404;-72
2021/01/13 07:09:45;;;;;;;10.02;6.10;;;1.70;83.60;;;;;;5112687;28;20404;-72
2021/01/13 07:12:17;;;;;;;11.05;5.88;;;1.70;83.70;;;;;;5089722;28;20465;-72
2021/01/13 07:14:52;;;;;;;14.50;6.43;;;1.60;84.30;;;;;;5094754;28;20416;-72
2021/01/13 07:17:21;;;;;;;11.45;6.70;;;1.70;84.40;;;;;;5085734;28;20471;-72
2021/01/13 07:19:52;;;;;;;11.77;6.32;;;1.80;83.70;;;;;;5074015;28;20809;-72
2021/01/13 07:22:26;;;;;;;10.93;6.65;;;1.80;83.80;;;;;;5084420;28;20493;-73
2021/01/13 07:24:56;;;;;;;12.15;7.07;;;1.80;83.70;;;;;;5112221;28;20408;-72
2021/01/13 07:27:23;;;;;;;10.98;7.43;;;1.80;83.90;;;;;;5090610;28;20401;-72
2021/01/13 07:29:50;;;;;;;12.13;6.33;;;1.70;84.50;;;;;;5093997;28;20473;-73
2021/01/13 07:32:39;;;;;;;16.87;7.50;;;1.80;84.20;;;;;;5108125;28;20495;-73
2021/01/13 07:35:07;;;;;;;12.57;7.15;;;1.80;84.60;;;;;;5093985;28;20404;-72
2021/01/13 07:37:46;;;;;;;11.27;6.45;;;1.90;83.90;;;;;;5108283;28;20431;-72
2021/01/13 07:40:28;;;;;;;10.38;7.15;;;1.80;83.90;;;;;;5093769;28;20511;-73
2021/01/13 07:43:43;;;;;;;12.33;7.20;;;1.80;84.20;;;;;;5106399;28;20420;-72
2021/01/13 07:46:25;;;;;;;12.02;6.90;;;1.70;84.60;;;;;;5049324;28;20409;-72
2021/01/13 07:49:10;;;;;;;12.23;7.13;;;1.80;84.20;;;;;;5076040;28;20406;-69
2021/01/13 07:51:47;;;;;;;9.90;7.03;;;1.80;83.70;;;;;;5053139;28;20791;-69
2021/01/13 07:54:31;;;;;;;12.90;7.70;;;1.90;84.00;;;;;;5097584;28;20431;-69
2021/01/13 07:57:01;;;;;;;12.30;8.10;;;1.90;84.30;;;;;;5093721;28;20498;-69
2021/01/13 07:59:34;;;;;;;12.05;7.90;;;1.90;84.50;;;;;;5087102;28;20428;-69
2021/01/13 08:02:22;;;;;;;14.55;8.65;;;1.80;85.10;;;;;;5093608;28;20397;-69
2021/01/13 08:05:16;;;;;;;15.37;8.47;;;1.80;85.00;;;;;;5088984;28;20490;-69
2021/01/13 08:07:43;;;;;;;17.45;8.30;;;1.80;85.00;;;;;;5071859;28;20410;-69
2021/01/13 08:10:29;;;;;;;15.63;8.30;;;1.90;84.80;;;;;;5087206;28;20528;-69
2021/01/13 08:13:04;;;;;;;15.38;8.73;;;1.90;84.80;;;;;;5070754;28;20424;-70
2021/01/13 08:15:36;;;;;;;11.07;8.05;;;1.90;84.50;;;;;;5077876;28;20431;-71
2021/01/13 08:18:45;;;;;;;12.77;8.00;;;2.10;84.80;;;;;;5110850;28;20400;-71
2021/01/13 08:24:25;;;;;;;14.82;8.57;;;2.40;83.10;;;;;;5081114;28;20411;-72
2021/01/13 08:26:49;;;;;;;13.07;8.68;;;2.40;82.80;;;;;;5109912;28;20886;-72
2021/01/13 08:29:23;;;;;;;14.13;8.85;;;2.40;83.20;;;;;;5093420;28;20536;-72
2021/01/13 08:32:06;;;;;;;15.35;8.52;;;2.40;82.20;;;;;;5088960;28;20461;-72
2021/01/13 08:34:44;;;;;;;16.37;9.07;;;2.40;82.00;;;;;;5092772;28;20423;-72
2021/01/13 08:37:11;;;;;;;14.15;9.05;;;2.30;82.10;;;;;;5105946;28;20422;-72
2021/01/13 08:39:42;;;;;;;14.75;9.30;;;2.40;82.00;;;;;;5085267;28;20489;-72
2021/01/13 08:42:22;;;;;;;14.13;8.90;;;2.30;82.20;;;;;;5082774;28;20703;-71
2021/01/13 08:44:54;;;;;;;12.90;9.47;;;2.30;81.60;;;;;;5093056;28;20512;-71
2021/01/13 08:47:27;;;;;;;16.50;8.60;;;2.40;81.90;;;;;;5088537;28;20404;-72
2021/01/13 08:50:16;;;;;;;15.15;8.85;;;2.30;82.10;;;;;;5056745;28;20412;-71
2021/01/13 08:52:50;;;;;;;15.53;9.47;;;2.40;82.10;;;;;;5090063;28;20810;-72
2021/01/13 08:55:17;;;;;;;16.02;9.85;;;2.30;81.50;;;;;;5096506;28;20473;-72
2021/01/13 08:58:04;;;;;;;14.70;9.32;;;2.50;82.20;;;;;;5087472;28;20419;-71
2021/01/13 09:00:31;;;;;;;13.52;8.38;;;2.50;81.40;;;;;;5096735;28;20569;-72
2021/01/13 09:03:21;;;;;;;16.08;9.00;;;2.50;80.60;;;;;;5092799;28;20427;-72
2021/01/13 09:05:47;;;;;;;14.50;9.05;;;2.40;80.40;;;;;;5076568;28;20406;-71
2021/01/13 09:08:15;;;;;;;13.93;8.52;;;2.50;80.70;;;;;;5073619;28;20414;-72
2021/01/13 09:10:49;;;;;;;16.20;8.50;;;2.50;80.20;;;;;;5075984;28;20402;-72
2021/01/13 09:13:48;;;;;;;11.68;7.93;;;2.40;80.10;;;;;;5083729;28;20412;-72
2021/01/13 09:16:27;;;;;;;15.80;7.82;;;2.50;78.70;;;;;;5029881;28;20411;-72
2021/01/13 09:19:11;;;;;;;14.05;7.53;;;2.60;76.80;;;;;;5080768;28;20416;-72
2021/01/13 09:21:44;;;;;;;11.47;7.10;;;2.70;77.50;;;;;;5079141;28;20483;-72
2021/01/13 09:24:18;;;;;;;11.82;6.57;;;2.60;76.80;;;;;;5078861;28;20475;-72
2021/01/13 09:26:53;;;;;;;13.48;7.07;;;2.60;77.20;;;;;;5074895;28;20483;-72
2021/01/13 09:29:22;;;;;;;11.80;6.28;;;2.70;76.90;;;;;;5082063;28;20868;-72
2021/01/13 09:32:11;;;;;;;11.98;6.60;;;2.70;75.00;;;;;;5095430;28;20430;-72
2021/01/13 09:34:40;;;;;;;13.23;6.70;;;2.80;75.70;;;;;;5109042;28;20469;-72
2021/01/13 09:37:07;;;;;;;10.33;6.03;;;2.80;75.20;;;;;;5101039;28;20422;-72
2021/01/13 09:39:38;;;;;;;12.32;5.90;;;2.70;73.80;;;;;;5090578;28;20738;-72
2021/01/13 09:42:09;;;;;;;11.35;5.70;;;2.70;74.20;;;;;;5113503;28;20439;-72
2021/01/13 09:44:37;;;;;;;8.93;5.82;;;2.80;73.00;;;;;;5073407;28;20641;-72
2021/01/13 09:47:28;;;;;;;11.57;6.43;;;2.80;73.40;;;;;;5095641;28;20408;-72
2021/01/13 09:49:57;;;;;;;10.57;5.90;;;2.90;73.80;;;;;;5091316;28;20424;-72
2021/01/13 09:52:51;;;;;;;11.03;6.00;;;2.80;73.20;;;;;;5096269;28;20400;-72
2021/01/13 09:55:26;;;;;;;9.48;5.75;;;2.80;73.90;;;;;;5086738;28;20428;-72
2021/01/13 09:58:17;;;;;;;13.05;6.35;;;2.70;73.50;;;;;;5075137;28;20440;-72
2021/01/13 10:00:52;;;;;;;12.60;6.05;;;2.70;74.20;;;;;;5099818;28;20467;-72
2021/01/13 10:03:18;;;;;;;9.73;5.27;;;2.70;74.60;;;;;;5095915;28;20404;-72
2021/01/13 10:05:45;;;;;;;9.20;5.00;;;2.70;74.70;;;;;;5091660;28;20420;-72
2021/01/13 10:08:11;;;;;;;8.77;4.70;;;2.80;74.60;;;;;;5095492;28;20517;-73
2021/01/13 10:10:38;;;;;;;8.15;4.78;;;2.80;73.50;;;;;;5091034;28;20423;-72
2021/01/13 10:13:05;;;;;;;10.60;5.00;;;2.70;73.00;;;;;;5113356;28;20405;-72
2021/01/13 10:15:32;;;;;;;9.50;5.00;;;2.60;73.20;;;;;;5109732;28;20416;-73
2021/01/13 10:18:04;;;;;;;10.25;4.82;;;2.70;74.40;;;;;;5054416;28;20410;-72
2021/01/13 10:20:31;;;;;;;9.88;5.15;;;2.70;73.50;;;;;;5060648;28;20430;-72
2021/01/13 10:23:01;;;;;;;8.38;4.82;;;2.70;74.00;;;;;;5088668;28;20794;-72
2021/01/13 10:25:34;;;;;;;8.85;4.70;;;2.80;73.10;;;;;;5095876;28;20404;-72
2021/01/13 10:28:01;;;;;;;8.25;4.85;;;2.80;73.00;;;;;;5091078;28;20457;-72
2021/01/13 10:30:30;;;;;;;9.63;5.00;;;2.80;72.90;;;;;;5094894;28;20459;-72
2021/01/13 10:32:57;;;;;;;10.80;4.90;;;2.90;73.00;;;;;;5091276;28;20477;-72
2021/01/13 10:35:39;;;;;;;8.87;4.80;;;2.90;73.10;;;;;;5113130;28;20412;-72
2021/01/13 10:38:06;;;;;;;8.70;4.68;;;2.90;73.40;;;;;;5091278;28;20509;-72
2021/01/13 10:40:33;;;;;;;9.10;4.88;;;3.10;72.20;;;;;;5094951;28;20419;-72
2021/01/13 10:42:59;;;;;;;9.75;4.90;;;3.30;71.70;;;;;;5108826;28;20400;-72
2021/01/13 10:45:26;;;;;;;11.02;4.97;;;3.20;72.10;;;;;;5095080;28;20420;-72
2021/01/13 10:47:56;;;;;;;10.45;5.05;;;3.40;71.30;;;;;;5091336;28;20411;-72
2021/01/13 10:50:26;;;;;;;10.27;5.20;;;3.40;71.30;;;;;;5094761;28;20940;-72
2021/01/13 10:53:04;;;;;;;11.57;5.00;;;3.30;71.30;;;;;;5090889;28;20408;-72
2021/01/13 10:55:32;;;;;;;11.98;4.38;;;3.40;71.70;;;;;;5112044;28;20420;-72
2021/01/13 10:58:01;;;;;;;13.48;5.07;;;3.50;70.10;;;;;;5090781;28;20404;-72
2021/01/13 11:00:28;;;;;;;9.07;4.57;;;3.50;71.10;;;;;;5094697;28;20427;-72
2021/01/13 11:03:02;;;;;;;14.02;4.70;;;3.40;70.80;;;;;;5094348;28;20477;-72
2021/01/13 11:05:35;;;;;;;12.13;4.53;;;3.20;71.40;;;;;;5090399;28;20416;-73
2021/01/13 11:08:04;;;;;;;13.43;5.20;;;2.70;76.20;;;;;;5112435;28;20404;-72
2021/01/13 11:10:30;;;;;;;12.45;5.50;;;2.70;78.90;;;;;;5089572;28;20428;-72
2021/01/13 11:13:04;;;;;;;10.38;4.90;;;2.50;80.10;;;;;;5094276;28;20412;-71
2021/01/13 11:15:33;;;;;;;10.80;5.20;;;2.50;80.10;;;;;;5082230;28;20428;-72
2021/01/13 11:18:06;;;;;;;11.70;5.38;;;2.60;80.40;;;;;;5094290;28;20424;-72
2021/01/13 11:20:33;;;;;;;15.95;6.07;;;2.60;80.70;;;;;;5107568;28;20872;-72
2021/01/13 11:23:05;;;;;;;12.68;6.00;;;2.60;80.90;;;;;;5094461;28;20423;-72
2021/01/13 11:25:39;;;;;;;15.20;6.30;;;2.70;80.80;;;;;;5090245;28;20915;-72
2021/01/13 11:28:13;;;;;;;15.45;6.38;;;2.80;80.20;;;;;;5111977;28;20855;-72
2021/01/13 11:30:40;;;;;;;15.40;6.22;;;3.00;79.40;;;;;;5090028;28;20436;-72
2021/01/13 11:33:09;;;;;;;12.37;5.37;;;3.20;79.10;;;;;;5093970;28;20416;-72
2021/01/13 11:35:38;;;;;;;10.23;4.78;;;3.60;75.40;;;;;;5107752;28;20415;-72
2021/01/13 11:38:32;;;;;;;11.10;5.07;;;3.70;73.20;;;;;;5094176;28;20493;-72
2021/01/13 11:41:41;;;;;;;11.35;5.00;;;3.50;73.20;;;;;;5090170;28;20474;-72
2021/01/13 11:44:52;;;;;;;11.73;4.78;;;3.60;73.70;;;;;;5111468;28;20416;-72
2021/01/13 11:47:19;;;;;;;13.77;4.85;;;4.10;72.40;;;;;;5089727;28;20432;-72
2021/01/13 11:49:52;;;;;;;15.02;4.95;;;4.00;70.60;;;;;;5093672;28;20444;-72
2021/01/13 11:52:21;;;;;;;13.52;4.78;;;4.20;71.20;;;;;;5107324;28;20848;-72
2021/01/13 11:54:53;;;;;;;10.88;4.38;;;4.50;70.20;;;;;;5093410;28;20756;-72
2021/01/13 11:57:33;;;;;;;9.55;4.28;;;4.50;67.90;;;;;;5089952;28;20966;-72
2021/01/13 12:00:18;;;;;;;12.57;4.60;;;4.40;66.60;;;;;;5111145;28;20937;-72
2021/01/13 12:03:01;;;;;;;9.15;4.25;;;4.30;67.20;;;;;;5107250;28;20411;-72
2021/01/13 12:05:39;;;;;;;10.25;4.32;;;4.20;66.90;;;;;;5093584;28;20419;-72
2021/01/13 12:08:10;;;;;;;11.25;4.28;;;4.00;67.90;;;;;;5106467;28;20416;-72
2021/01/13 12:10:37;;;;;;;8.97;3.93;;;4.00;67.50;;;;;;5111238;28;20435;-72
2021/01/13 12:13:17;;;;;;;10.35;3.75;;;4.20;66.70;;;;;;5089342;28;20564;-72
2021/01/13 12:16:01;;;;;;;9.57;3.30;;;4.30;65.70;;;;;;5111105;28;20534;-72
2021/01/13 12:18:44;;;;;;;9.80;2.83;;;4.60;64.90;;;;;;5089662;28;20409;-72
2021/01/13 12:21:14;;;;;;;10.75;2.60;;;4.40;60.60;;;;;;5092849;28;20392;-72
2021/01/13 12:23:50;;;;;;;17.42;2.53;;;4.50;62.20;;;;;;5089761;28;20434;-72
2021/01/13 12:26:39;;;;;;;8.63;2.58;;;5.60;59.90;;;;;;5111157;28;20446;-73
2021/01/13 12:29:08;;;;;;;8.75;2.78;;;6.40;56.70;;;;;;5082036;28;20892;-72
2021/01/13 12:31:47;;;;;;;9.20;2.65;;;6.40;56.60;;;;;;5072763;28;20422;-72
2021/01/13 12:34:26;;;;;;;7.07;2.50;;;6.20;56.20;;;;;;5094814;28;20410;-72
2021/01/13 12:36:54;;;;;;;7.65;2.80;;;6.20;56.20;;;;;;5093093;28;20860;-72
2021/01/13 12:39:31;;;;;;;8.27;2.65;;;5.90;57.70;;;;;;5089257;28;20430;-72
2021/01/13 12:41:59;;;;;;;10.63;2.90;;;5.70;57.70;;;;;;5110667;28;20412;-72
2021/01/13 12:44:26;;;;;;;9.35;2.97;;;5.30;57.80;;;;;;5088934;28;20404;-72
2021/01/13 12:46:53;;;;;;;9.45;2.63;;;5.00;59.60;;;;;;5092910;28;20903;-72
2021/01/13 12:49:20;;;;;;;5.50;2.40;;;4.90;60.40;;;;;;5088749;28;20494;-72
2021/01/13 12:51:51;;;;;;;7.60;2.20;;;4.80;60.40;;;;;;5092748;28;20811;-72
2021/01/13 12:54:18;;;;;;;8.03;2.03;;;4.70;57.80;;;;;;5092608;28;21004;-72
2021/01/13 12:56:51;;;;;;;7.03;1.80;;;4.60;59.00;;;;;;5088866;28;20400;-72
2021/01/13 12:59:17;;;;;;;6.38;1.90;;;4.40;58.70;;;;;;5092790;28;20411;-72
2021/01/13 13:01:49;;;;;;;10.95;2.20;;;4.20;60.80;;;;;;5106156;28;20858;-72
2021/01/13 13:04:20;;;;;;;7.03;2.22;;;4.10;60.60;;;;;;5072938;28;20436;-72
2021/01/13 13:06:51;;;;;;;6.27;2.07;;;4.10;61.80;;;;;;5100881;28;20775;-72
2021/01/13 13:09:19;;;;;;;7.18;2.25;;;4.00;60.60;;;;;;5093254;28;20408;-72
2021/01/13 13:11:51;;;;;;;8.15;2.13;;;4.10;61.80;;;;;;5088908;28;20424;-72
2021/01/13 13:14:19;;;;;;;7.28;2.28;;;4.20;60.70;;;;;;5110904;28;20420;-72
2021/01/13 13:16:45;;;;;;;5.70;1.95;;;4.20;60.20;;;;;;5088970;28;20408;-72
2021/01/13 13:19:14;;;;;;;7.57;2.10;;;4.00;59.40;;;;;;5092909;28;20392;-72
2021/01/13 13:21:44;;;;;;;10.15;2.30;;;4.00;59.60;;;;;;5083545;28;20408;-72
2021/01/13 13:24:11;;;;;;;9.35;2.20;;;3.90;60.00;;;;;;5092886;28;20412;-72
2021/01/13 13:26:41;;;;;;;7.40;2.00;;;3.70;60.10;;;;;;5089036;28;20415;-72
2021/01/13 13:29:10;;;;;;;7.85;2.10;;;3.70;61.40;;;;;;5092696;28;20415;-72